Great Bend, KS

11:19 AM CST on February 19, 2017 (GMT -0600)
Great Bend Municipal

Weather History for KGBD - April, 2013

Change the Weather History Date:

Thursday, April 18, 2013

  Actual Average Record
Temperature  
Mean Temperature 32 °F -  
Max Temperature 37 °F 70 °F 89 °F (1987)
Min Temperature 28 °F 45 °F 24 °F (1953)
Degree Days  
Heating Degree Days 32    
Moisture  
Dew Point 25 °F    
Average Humidity 71    
Maximum Humidity 87    
Minimum Humidity 52    
Precipitation  
Precipitation 0.00 in - - ()
Sea Level Pressure  
Sea Level Pressure 29.97 in    
Wind  
Wind Speed 23 mph (NNW)    
Max Wind Speed 30 mph    
Max Gust Speed 40 mph    
Visibility 10 miles    
Events      
Averages and records for this station are not official NWS values.
T = Trace of Precipitation, MM = Missing Value Source: NWS Daily Summary

Daily Weather History Graph

Daily Weather History Graph

Search for Another Location

Airport or City:

Trip Planner

Search our weather history database for the weather conditions in past years. The results will help you decide how hot, cold, wet, or windy it might be!

Date:

Astronomy

Apr. 18, 2013 Rise Set
Actual Time 6:55 AM CDT 8:14 PM CDT
Civil Twilight 6:27 AM CDT 8:42 PM CDT
Nautical Twilight 5:54 AM CDT 9:15 PM CDT
Astronomical Twilight 5:20 AM CDT 9:50 PM CDT
Moon 1:09 PM CDT (4/18) 2:29 AM CDT (4/18)
Length of Visible Light 14h 15m
Length of Day
13h 19m
First Quarter, 52% of the Moon is Illuminated
Apr 18
First Quarter
Apr 25
Full
May 2
Last Quarter
May 9
New
May 17
First Quarter

Hourly Weather History & Observations

Time (CDT) Temp. Windchill Dew Point Humidity Pressure Visibility Wind Dir Wind Speed Gust Speed Precip Events Conditions
12:15 AM 33.8 °F 21.3 °F 30.2 °F 87% 29.80 in 10.0 mi North 24.2 mph 33.4 mph N/A   Overcast
12:35 AM 33.8 °F 21.0 °F 30.2 °F 87% 29.84 in 10.0 mi North 25.3 mph 33.4 mph N/A   Overcast
12:55 AM 33.8 °F 21.3 °F 30.2 °F 87% 29.84 in 10.0 mi North 24.2 mph 31.1 mph N/A   Overcast
1:15 AM 33.8 °F 21.3 °F 28.4 °F 81% 29.84 in 3.0 mi NNW 24.2 mph 33.4 mph N/A   Overcast
1:35 AM 33.8 °F 22.2 °F 28.4 °F 81% 29.84 in 4.0 mi North 20.7 mph 29.9 mph N/A   Overcast
1:55 AM 33.8 °F 20.8 °F 28.4 °F 81% 29.84 in 8.0 mi NNW 26.5 mph 32.2 mph N/A   Overcast
2:15 AM 33.8 °F 21.9 °F 28.4 °F 81% 29.85 in 10.0 mi NNW 21.9 mph 27.6 mph N/A   Overcast
2:35 AM 33.8 °F 21.3 °F 28.4 °F 81% 29.85 in 10.0 mi NNW 24.2 mph 32.2 mph N/A   Overcast
2:55 AM 32.0 °F 19.8 °F 28.4 °F 87% 29.87 in 6.0 mi NNW 20.7 mph 29.9 mph N/A   Overcast
3:15 AM 32.0 °F 19.5 °F 28.4 °F 87% 29.87 in 5.0 mi NNW 21.9 mph 28.8 mph N/A   Overcast
3:35 AM 32.0 °F 18.4 °F 26.6 °F 80% 29.86 in 9.0 mi North 26.5 mph 34.5 mph N/A   Overcast
3:55 AM 32.0 °F 19.2 °F 26.6 °F 80% 29.86 in 8.0 mi NNW 23.0 mph 33.4 mph N/A   Overcast
4:15 AM 32.0 °F 18.9 °F 26.6 °F 80% 29.85 in 10.0 mi NNW 24.2 mph 35.7 mph N/A   Overcast
4:35 AM 30.2 °F 17.8 °F 26.6 °F 86% 29.87 in 10.0 mi NNW 19.6 mph 32.2 mph N/A   Overcast
4:55 AM 30.2 °F 16.5 °F 24.8 °F 80% 29.87 in 10.0 mi NNW 24.2 mph 39.1 mph N/A   Overcast
5:15 AM 30.2 °F 16.5 °F 24.8 °F 80% 29.88 in 10.0 mi NNW 24.2 mph 38.0 mph N/A   Overcast
5:35 AM 30.2 °F 16.8 °F 24.8 °F 80% 29.88 in 10.0 mi NNW 23.0 mph 31.1 mph N/A   Overcast
5:55 AM 30.2 °F 16.8 °F 24.8 °F 80% 29.89 in 9.0 mi NNW 23.0 mph 33.4 mph N/A   Overcast
6:15 AM 30.2 °F 16.2 °F 24.8 °F 80% 29.90 in 10.0 mi NNW 25.3 mph 34.5 mph N/A   Overcast
6:35 AM 30.2 °F 16.5 °F 24.8 °F 80% 29.89 in 10.0 mi NNW 24.2 mph 31.1 mph N/A   Overcast
6:55 AM 30.2 °F 16.5 °F 23.0 °F 75% 29.90 in 10.0 mi NNW 24.2 mph 33.4 mph N/A   Overcast
7:15 AM 30.2 °F 15.7 °F 23.0 °F 75% 29.91 in 10.0 mi NNW 27.6 mph 36.8 mph N/A   Overcast
7:35 AM 28.4 °F 13.5 °F 23.0 °F 80% 29.90 in 10.0 mi NNW 26.5 mph 34.5 mph N/A   Overcast
7:55 AM 28.4 °F 14.1 °F 23.0 °F 80% 29.92 in 10.0 mi NNW 24.2 mph 40.3 mph N/A   Mostly Cloudy
8:15 AM 30.2 °F 16.2 °F 24.8 °F 80% 29.94 in 10.0 mi NNW 25.3 mph 35.7 mph N/A   Overcast
8:35 AM 30.2 °F 16.5 °F 24.8 °F 80% 29.95 in 10.0 mi NNW 24.2 mph 31.1 mph N/A   Overcast
8:55 AM 30.2 °F 16.8 °F 24.8 °F 80% 29.96 in 10.0 mi NNW 23.0 mph 34.5 mph N/A   Overcast
9:15 AM 30.2 °F 16.8 °F 24.8 °F 80% 29.97 in 10.0 mi NNW 23.0 mph 33.4 mph N/A   Overcast
9:35 AM 32.0 °F 18.1 °F 24.8 °F 75% 29.97 in 10.0 mi NNW 27.6 mph 36.8 mph N/A   Mostly Cloudy
9:55 AM 32.0 °F 17.9 °F 24.8 °F 75% 29.98 in 10.0 mi NNW 28.8 mph 39.1 mph N/A   Overcast
10:15 AM 32.0 °F 18.4 °F 24.8 °F 75% 29.98 in 10.0 mi NNW 26.5 mph 35.7 mph N/A   Overcast
10:35 AM 32.0 °F 18.6 °F 24.8 °F 75% 29.98 in 10.0 mi NNW 25.3 mph 35.7 mph N/A   Overcast
10:55 AM 33.8 °F 21.0 °F 24.8 °F 70% 29.98 in 10.0 mi NNW 25.3 mph 34.5 mph N/A   Overcast
11:15 AM 33.8 °F 20.3 °F 26.6 °F 75% 29.98 in 10.0 mi NNW 28.8 mph 38.0 mph N/A   Overcast
11:35 AM 35.6 °F 22.7 °F 26.6 °F 70% 29.99 in 10.0 mi NNW 28.8 mph 35.7 mph N/A   Overcast
11:55 AM 35.6 °F 22.7 °F 24.8 °F 65% 29.99 in 10.0 mi NNW 28.8 mph 34.5 mph N/A   Overcast
12:15 PM 35.6 °F 22.5 °F 24.8 °F 65% 29.99 in 10.0 mi North 29.9 mph 39.1 mph N/A   Overcast
12:35 PM 33.8 °F 20.5 °F 24.8 °F 70% 29.99 in 10.0 mi NNW 27.6 mph 35.7 mph N/A   Overcast
12:55 PM 35.6 °F 23.0 °F 24.8 °F 65% 29.99 in 10.0 mi NNW 27.6 mph 34.5 mph N/A   Overcast
1:15 PM 35.6 °F 23.2 °F 24.8 °F 65% 29.99 in 10.0 mi NNW 26.5 mph 35.7 mph N/A   Overcast
1:35 PM 37.4 °F 25.2 °F 26.6 °F 65% 30.00 in 10.0 mi NNW 28.8 mph 39.1 mph N/A   Overcast
1:55 PM 37.4 °F 26.1 °F 24.8 °F 60% 30.00 in 10.0 mi NNW 24.2 mph 35.7 mph N/A   Overcast
2:15 PM 35.6 °F 23.2 °F 24.8 °F 65% 30.00 in 10.0 mi NNW 26.5 mph 34.5 mph N/A   Overcast
2:35 PM 37.4 °F 25.4 °F 24.8 °F 60% 30.01 in 10.0 mi NNW 27.6 mph 36.8 mph N/A   Overcast
2:55 PM 37.4 °F 26.9 °F 24.8 °F 60% 30.01 in 10.0 mi NNW 20.7 mph 33.4 mph N/A   Overcast
3:35 PM 37.4 °F 26.9 °F 24.8 °F 60% 30.01 in 10.0 mi NNW 20.7 mph 29.9 mph N/A   Overcast
3:55 PM 37.4 °F 26.9 °F 24.8 °F 60% 30.01 in 10.0 mi NW 20.7 mph 26.5 mph N/A   Overcast
4:15 PM 37.4 °F 26.6 °F 24.8 °F 60% 30.02 in 10.0 mi NNW 21.9 mph 27.6 mph N/A   Overcast
4:35 PM 37.4 °F 27.5 °F 23.0 °F 56% 30.02 in 10.0 mi NW 18.4 mph 26.5 mph N/A   Overcast
4:55 PM 37.4 °F 27.2 °F 23.0 °F 56% 30.02 in 10.0 mi NNW 19.6 mph 27.6 mph N/A   Overcast
5:15 PM 35.6 °F 24.5 °F 23.0 °F 60% 30.02 in 10.0 mi NNW 20.7 mph 27.6 mph N/A   Overcast
5:35 PM 35.6 °F 24.8 °F 23.0 °F 60% 30.03 in 10.0 mi NW 19.6 mph 25.3 mph N/A   Overcast
5:55 PM 37.4 °F 26.6 °F 21.2 °F 52% 30.03 in 10.0 mi NW 21.9 mph 34.5 mph N/A   Overcast
6:15 PM 37.4 °F 27.5 °F 21.2 °F 52% 30.03 in 10.0 mi NW 18.4 mph 26.5 mph N/A   Overcast
6:35 PM 35.6 °F 24.0 °F 21.2 °F 56% 30.03 in 10.0 mi NNW 23.0 mph 28.8 mph N/A   Overcast
6:55 PM 35.6 °F 25.2 °F 21.2 °F 56% 30.04 in 10.0 mi NW 18.4 mph 29.9 mph N/A   Overcast
7:15 PM 35.6 °F 25.5 °F 21.2 °F 56% 30.05 in 10.0 mi NW 17.3 mph 28.8 mph N/A   Overcast
7:35 PM 35.6 °F 26.2 °F 21.2 °F 56% 30.05 in 10.0 mi NW 15.0 mph 28.8 mph N/A   Overcast
7:55 PM 35.6 °F 25.5 °F 21.2 °F 56% 30.05 in 10.0 mi NNW 17.3 mph 25.3 mph N/A   Overcast
8:15 PM 33.8 °F 25.3 °F 23.0 °F 65% 30.06 in 10.0 mi NNW 11.5 mph - N/A   Mostly Cloudy
8:35 PM 33.8 °F 25.8 °F 23.0 °F 65% 30.06 in 10.0 mi NW 10.4 mph - N/A   Overcast
8:55 PM 33.8 °F 25.8 °F 21.2 °F 60% 30.07 in 10.0 mi NNW 10.4 mph - N/A   Mostly Cloudy
9:15 PM 33.8 °F 25.3 °F 23.0 °F 65% 30.07 in 10.0 mi NW 11.5 mph - N/A   Mostly Cloudy
9:35 PM 33.8 °F 24.3 °F 21.2 °F 60% 30.08 in 10.0 mi NW 13.8 mph - N/A   Scattered Clouds
9:55 PM 32.0 °F 23.0 °F 21.2 °F 64% 30.09 in 10.0 mi NW 11.5 mph - N/A   Scattered Clouds
10:35 PM 30.2 °F 20.8 °F 23.0 °F 75% 30.10 in 10.0 mi NW 11.5 mph - N/A   Clear
10:55 PM 28.4 °F 19.7 °F 21.2 °F 74% 30.10 in 10.0 mi WNW 9.2 mph - N/A   Clear
11:15 PM 28.4 °F 18.5 °F 23.0 °F 80% 30.09 in 10.0 mi NW 11.5 mph - N/A   Clear
11:35 PM 28.4 °F 18.5 °F 21.2 °F 74% 30.09 in 10.0 mi NW 11.5 mph - N/A   Clear
11:55 PM 28.4 °F 18.5 °F 21.2 °F 74% 30.08 in 10.0 mi NW 11.5 mph - N/A   Clear